createdAt,value
2022-08-19T00:01:43.462Z,52.10
2022-08-19T00:04:13.339Z,52.20
2022-08-19T00:06:41.628Z,52.48
2022-08-19T00:09:10.865Z,52.28
2022-08-19T00:11:38.441Z,52.36
2022-08-19T00:14:10.771Z,52.61
2022-08-19T00:16:39.596Z,52.69
2022-08-19T00:19:07.057Z,52.69
2022-08-19T00:21:33.648Z,52.58
2022-08-19T00:24:04.448Z,52.73
2022-08-19T00:26:31.101Z,52.87
2022-08-19T00:28:57.610Z,52.74
2022-08-19T00:31:24.174Z,52.48
2022-08-19T00:33:51.393Z,52.62
2022-08-19T00:36:18.626Z,52.72
2022-08-19T00:38:45.522Z,52.69
2022-08-19T00:41:18.314Z,52.71
2022-08-19T00:44:01.396Z,52.51
2022-08-19T00:46:29.017Z,52.41
2022-08-19T00:48:58.303Z,52.35
2022-08-19T00:51:28.155Z,52.41
2022-08-19T00:53:59.915Z,52.38
2022-08-19T00:56:27.957Z,52.72
2022-08-19T00:58:57.557Z,52.67
2022-08-19T01:01:24.280Z,52.73
2022-08-19T01:03:58.169Z,52.88
2022-08-19T01:06:26.653Z,53.05
2022-08-19T01:08:54.880Z,52.76
2022-08-19T01:11:22.073Z,53.36
2022-08-19T01:13:54.271Z,53.34
2022-08-19T01:16:23.891Z,53.30
2022-08-19T01:18:51.097Z,53.58
2022-08-19T01:21:27.958Z,53.61
2022-08-19T01:23:55.187Z,53.53
2022-08-19T01:26:25.868Z,53.57
2022-08-19T01:28:59.511Z,53.86
2022-08-19T01:31:33.101Z,53.84
2022-08-19T01:34:01.858Z,53.67
2022-08-19T01:36:38.424Z,53.76
2022-08-19T01:42:13.716Z,53.88
2022-08-19T01:44:42.078Z,53.98
2022-08-19T01:47:10.512Z,53.67
2022-08-19T01:49:37.903Z,53.68
2022-08-19T01:52:05.666Z,53.95
2022-08-19T01:54:34.114Z,53.83
2022-08-19T01:57:11.855Z,53.81
2022-08-19T01:59:38.650Z,54.13
2022-08-19T02:02:08.431Z,54.14
2022-08-19T02:04:39.159Z,54.42
2022-08-19T02:07:06.946Z,54.33
2022-08-19T02:09:33.638Z,54.16
2022-08-19T02:12:00.196Z,54.42
2022-08-19T02:14:28.039Z,54.43
2022-08-19T02:16:54.573Z,54.54
2022-08-19T02:19:21.264Z,54.70
2022-08-19T02:21:48.004Z,54.84
2022-08-19T02:24:15.141Z,54.87
2022-08-19T02:26:41.680Z,54.90
2022-08-19T02:29:08.643Z,54.74
2022-08-19T02:31:35.223Z,54.28
2022-08-19T02:34:03.338Z,54.82
2022-08-19T02:36:31.154Z,54.83
2022-08-19T02:38:57.664Z,54.70
2022-08-19T02:41:29.797Z,54.77
2022-08-19T02:44:22.786Z,54.54
2022-08-19T02:46:51.704Z,54.70
2022-08-19T02:49:19.414Z,54.85
2022-08-19T02:51:47.038Z,55.07
2022-08-19T02:54:17.048Z,55.24
2022-08-19T02:56:44.367Z,55.28
2022-08-19T02:59:12.280Z,55.17
2022-08-19T03:01:41.818Z,55.37
2022-08-19T03:04:10.335Z,55.32
2022-08-19T03:06:39.382Z,55.59
2022-08-19T03:09:06.041Z,55.75
2022-08-19T03:11:34.197Z,55.77
2022-08-19T03:14:02.183Z,55.69
2022-08-19T03:16:33.534Z,56.03
2022-08-19T03:19:02.460Z,56.08
2022-08-19T03:21:34.244Z,56.34
2022-08-19T03:24:05.918Z,56.07
2022-08-19T03:26:33.126Z,56.29
2022-08-19T03:29:04.881Z,56.04
2022-08-19T03:31:43.731Z,56.33
2022-08-19T03:34:28.570Z,56.55
2022-08-19T03:36:57.931Z,56.07
2022-08-19T03:39:26.946Z,56.40
2022-08-19T03:42:32.401Z,56.35
2022-08-19T03:44:47.770Z,56.31
2022-08-19T03:47:17.778Z,56.46
2022-08-19T03:49:44.953Z,56.37
2022-08-19T03:52:11.761Z,56.52
2022-08-19T03:54:39.519Z,56.64
2022-08-19T03:57:06.806Z,56.25
2022-08-19T03:59:36.183Z,56.62
2022-08-19T04:02:09.365Z,56.22
2022-08-19T04:04:37.931Z,56.31
2022-08-19T04:07:04.772Z,56.22
2022-08-19T04:09:31.411Z,56.27
2022-08-19T04:11:58.706Z,56.34
2022-08-19T04:14:31.113Z,56.61
2022-08-19T04:16:58.374Z,56.15
2022-08-19T04:19:25.709Z,56.53
2022-08-19T04:21:54.722Z,56.39
2022-08-19T04:24:24.867Z,56.31
2022-08-19T04:26:51.767Z,56.65
2022-08-19T04:29:22.748Z,56.46
2022-08-19T04:31:50.567Z,56.45
2022-08-19T04:34:23.277Z,56.57
2022-08-19T04:36:54.364Z,56.63
2022-08-19T04:39:47.176Z,56.38
2022-08-19T04:42:33.305Z,56.62
2022-08-19T04:45:00.086Z,56.62
2022-08-19T04:47:48.272Z,56.66
2022-08-19T04:50:13.438Z,56.75
2022-08-19T04:52:43.705Z,56.69
2022-08-19T04:55:14.615Z,56.91
2022-08-19T04:57:41.498Z,57.39
2022-08-19T05:00:10.360Z,57.29
2022-08-19T05:02:37.142Z,56.99
2022-08-19T05:05:04.226Z,57.05
2022-08-19T05:07:31.797Z,57.36
2022-08-19T05:09:59.288Z,57.75
2022-08-19T05:12:28.845Z,57.53
2022-08-19T05:14:57.888Z,57.57
2022-08-19T05:17:27.967Z,57.37
2022-08-19T05:20:15.139Z,57.09
2022-08-19T05:22:42.849Z,57.18
2022-08-19T05:25:14.625Z,57.53
2022-08-19T05:27:42.651Z,57.42
2022-08-19T05:30:10.346Z,57.50
2022-08-19T05:32:37.005Z,57.36
2022-08-19T05:35:05.591Z,57.46
2022-08-19T05:37:32.216Z,57.80
2022-08-19T05:39:59.055Z,57.33
2022-08-19T05:42:27.442Z,57.86
2022-08-19T05:44:54.475Z,58.28
2022-08-19T05:47:21.228Z,58.33
2022-08-19T05:49:50.856Z,58.34
2022-08-19T05:52:18.914Z,58.34
2022-08-19T05:54:48.680Z,58.59
2022-08-19T05:57:19.632Z,58.76
2022-08-19T05:59:49.179Z,58.86
2022-08-19T06:02:15.898Z,59.13
2022-08-19T06:04:45.635Z,59.37
2022-08-19T06:07:13.088Z,59.27
2022-08-19T06:09:41.310Z,59.50
2022-08-19T06:12:10.197Z,60.20
2022-08-19T06:14:42.465Z,60.23
2022-08-19T06:17:09.252Z,60.41
2022-08-19T06:19:41.047Z,60.42
2022-08-19T06:22:09.009Z,60.56
2022-08-19T06:24:37.215Z,60.88
2022-08-19T06:27:04.273Z,61.01
2022-08-19T06:29:31.144Z,61.02
2022-08-19T06:32:00.577Z,61.05
2022-08-19T06:34:30.085Z,60.72
2022-08-19T06:36:58.572Z,60.57
2022-08-19T06:39:28.693Z,60.93
2022-08-19T06:41:59.586Z,60.75
2022-08-19T06:44:38.442Z,60.57
2022-08-19T06:47:14.642Z,60.56
2022-08-19T06:49:41.847Z,60.62
2022-08-19T06:52:08.923Z,60.38
2022-08-19T06:54:40.593Z,60.35
2022-08-19T06:57:24.249Z,60.41
2022-08-19T06:59:50.913Z,60.25
2022-08-19T07:04:47.104Z,60.14
2022-08-19T07:07:21.014Z,60.07
2022-08-19T07:09:52.217Z,60.14
2022-08-19T07:12:25.595Z,59.92
2022-08-19T07:14:53.701Z,59.94
2022-08-19T07:17:21.667Z,59.56
2022-08-19T07:19:48.585Z,59.32
2022-08-19T07:22:15.885Z,59.44
2022-08-19T07:24:45.354Z,59.23
2022-08-19T07:27:24.382Z,59.39
2022-08-19T07:29:56.243Z,59.42
2022-08-19T07:32:28.427Z,58.92
2022-08-19T07:34:56.787Z,58.62
2022-08-19T07:37:32.052Z,58.62
2022-08-19T07:39:59.748Z,58.35
2022-08-19T07:42:26.496Z,58.54
2022-08-19T07:44:54.097Z,58.32
2022-08-19T07:47:48.197Z,58.09
2022-08-19T07:50:10.252Z,57.81
2022-08-19T07:52:40.247Z,57.75
2022-08-19T07:55:11.334Z,57.42
2022-08-19T07:57:56.185Z,57.16
2022-08-19T08:00:24.262Z,56.88
2022-08-19T08:02:52.182Z,56.66
2022-08-19T08:05:44.324Z,56.43
2022-08-19T08:08:31.408Z,56.24
2022-08-19T08:10:59.483Z,56.09
2022-08-19T08:13:36.045Z,56.01
2022-08-19T08:16:03.828Z,55.83
2022-08-19T08:18:30.745Z,55.76
2022-08-19T08:20:58.156Z,55.56
2022-08-19T08:23:27.802Z,55.37
2022-08-19T08:25:58.847Z,55.21
2022-08-19T08:28:29.630Z,54.89
2022-08-19T08:30:58.224Z,54.80
2022-08-19T08:33:34.353Z,54.70
2022-08-19T08:36:11.852Z,54.07
2022-08-19T08:38:40.211Z,53.72
2022-08-19T08:41:29.087Z,53.74
2022-08-19T08:43:58.239Z,53.16
2022-08-19T08:46:43.150Z,53.03
2022-08-19T08:49:34.254Z,52.36
2022-08-19T08:52:08.294Z,52.36
2022-08-19T08:54:40.250Z,52.23
2022-08-19T08:57:16.509Z,51.83
2022-08-19T08:59:49.931Z,51.40
2022-08-19T09:02:16.906Z,51.21
2022-08-19T09:04:44.117Z,50.69
2022-08-19T09:07:34.848Z,50.30
2022-08-19T09:10:45.180Z,49.74
2022-08-19T09:13:32.213Z,49.24
2022-08-19T09:16:10.314Z,48.75
2022-08-19T09:18:43.029Z,48.31
2022-08-19T09:21:09.952Z,47.81
2022-08-19T09:23:41.625Z,47.78
2022-08-19T09:26:16.588Z,47.88
2022-08-19T09:28:45.320Z,47.68
2022-08-19T09:31:19.690Z,47.43
2022-08-19T09:33:52.288Z,47.32
2022-08-19T09:36:34.597Z,47.23
2022-08-19T09:39:02.206Z,47.23
2022-08-19T09:41:29.889Z,47.22
2022-08-19T09:44:00.867Z,47.18
2022-08-19T09:46:31.192Z,47.08
2022-08-19T09:49:06.177Z,46.78
2022-08-19T09:51:34.004Z,46.78
2022-08-19T09:54:04.879Z,46.75
2022-08-19T09:56:32.711Z,46.62
2022-08-19T09:59:01.458Z,46.41
2022-08-19T10:01:30.888Z,46.25
2022-08-19T10:04:01.298Z,45.88
2022-08-19T10:06:38.170Z,45.48
2022-08-19T10:09:15.430Z,45.55
2022-08-19T10:11:52.251Z,45.43
2022-08-19T10:14:24.782Z,45.75
2022-08-19T10:16:52.737Z,45.71
2022-08-19T10:19:26.027Z,45.71
2022-08-19T10:21:53.825Z,45.27
2022-08-19T10:24:25.405Z,44.93
2022-08-19T10:26:57.134Z,44.60
2022-08-19T10:29:32.448Z,44.47
2022-08-19T10:32:09.402Z,44.53
2022-08-19T10:34:48.179Z,44.39
2022-08-19T10:37:15.064Z,43.95
2022-08-19T10:39:48.833Z,43.72
2022-08-19T10:42:17.119Z,43.94
2022-08-19T10:44:43.676Z,43.73
2022-08-19T10:47:17.914Z,43.69
2022-08-19T10:50:12.526Z,43.64
2022-08-19T10:52:49.161Z,43.59
2022-08-19T10:55:41.971Z,43.62
2022-08-19T10:58:18.096Z,43.68
2022-08-19T11:00:52.797Z,43.40
2022-08-19T11:03:19.926Z,43.38
2022-08-19T11:05:46.581Z,43.05
2022-08-19T11:08:23.237Z,43.00
2022-08-19T11:10:57.753Z,42.62
2022-08-19T11:13:25.479Z,42.97
2022-08-19T11:16:07.682Z,42.62
2022-08-19T11:18:39.703Z,42.81
2022-08-19T11:21:12.010Z,42.45
2022-08-19T11:23:38.944Z,42.59
2022-08-19T11:26:05.853Z,42.66
2022-08-19T11:28:32.603Z,42.37
2022-08-19T11:30:59.208Z,42.46
2022-08-19T11:33:31.441Z,42.67
2022-08-19T11:36:00.180Z,42.31
2022-08-19T11:38:27.341Z,42.54
2022-08-19T11:40:59.338Z,42.92
2022-08-19T11:43:32.391Z,42.73
2022-08-19T11:46:07.821Z,42.74
2022-08-19T11:48:35.526Z,42.71
2022-08-19T11:51:07.061Z,42.58
2022-08-19T11:53:37.915Z,42.23
2022-08-19T11:56:05.647Z,42.00
2022-08-19T11:58:32.377Z,41.70
2022-08-19T12:00:58.949Z,41.87
2022-08-19T12:03:27.394Z,41.67
2022-08-19T12:05:54.097Z,41.39
2022-08-19T12:08:20.681Z,41.13
2022-08-19T12:10:47.274Z,40.80
2022-08-19T12:13:19.585Z,40.60
2022-08-19T12:15:48.244Z,40.72
2022-08-19T12:18:15.714Z,40.76
2022-08-19T12:20:43.984Z,40.59
2022-08-19T12:23:11.775Z,40.44
2022-08-19T12:25:51.115Z,40.52
2022-08-19T12:28:18.515Z,40.44
2022-08-19T12:30:45.101Z,40.05
2022-08-19T12:33:15.509Z,39.72
2022-08-19T12:35:45.751Z,39.18
2022-08-19T12:38:12.491Z,39.73
2022-08-19T12:40:40.965Z,39.23
2022-08-19T12:43:12.551Z,39.65
2022-08-19T12:45:39.123Z,39.36
2022-08-19T12:48:32.880Z,39.13
2022-08-19T12:50:55.130Z,39.46
2022-08-19T12:53:24.997Z,39.08
2022-08-19T12:56:01.348Z,39.07
2022-08-19T12:58:29.798Z,39.24
2022-08-19T13:00:56.488Z,39.10
2022-08-19T13:03:29.911Z,38.65
2022-08-19T13:05:56.780Z,38.93
2022-08-19T13:08:23.569Z,38.55
2022-08-19T13:10:51.485Z,39.29
2022-08-19T13:13:22.806Z,38.91
2022-08-19T13:15:49.462Z,38.78
2022-08-19T13:18:15.988Z,38.89
2022-08-19T13:20:42.867Z,38.83
2022-08-19T13:23:20.684Z,38.75
2022-08-19T13:25:57.518Z,38.76
2022-08-19T13:28:29.267Z,38.49
2022-08-19T13:31:14.406Z,38.69
2022-08-19T13:33:41.702Z,38.48
2022-08-19T13:36:08.724Z,38.51
2022-08-19T13:38:35.957Z,38.53
2022-08-19T13:41:10.953Z,38.27
2022-08-19T13:43:40.859Z,38.52
2022-08-19T13:46:12.594Z,38.58
2022-08-19T13:48:39.099Z,38.39
2022-08-19T13:51:06.326Z,38.28
2022-08-19T13:53:32.895Z,38.15
2022-08-19T13:55:59.774Z,38.50
2022-08-19T13:58:26.552Z,38.37
2022-08-19T14:00:53.312Z,38.63
2022-08-19T14:03:20.713Z,38.42
2022-08-19T14:05:47.641Z,38.38
2022-08-19T14:08:15.090Z,38.51
2022-08-19T14:10:43.605Z,38.78
2022-08-19T14:13:15.567Z,38.47
2022-08-19T14:15:42.360Z,38.70
2022-08-19T14:18:08.845Z,38.76
2022-08-19T14:20:36.199Z,38.65
2022-08-19T14:23:08.690Z,38.95
2022-08-19T14:25:35.405Z,39.02
2022-08-19T14:28:02.356Z,39.07
2022-08-19T14:30:31.862Z,39.22
2022-08-19T14:33:15.849Z,39.72
2022-08-19T14:35:45.870Z,39.50
2022-08-19T14:38:18.228Z,39.49
2022-08-19T14:40:52.941Z,39.76
2022-08-19T14:43:22.983Z,40.06
2022-08-19T14:45:49.558Z,40.45
2022-08-19T14:48:19.430Z,40.23
2022-08-19T14:50:47.336Z,40.43
2022-08-19T14:53:17.508Z,40.33
2022-08-19T14:55:46.756Z,40.23
2022-08-19T14:58:29.203Z,40.31
2022-08-19T15:00:58.264Z,40.71
2022-08-19T15:03:26.935Z,40.70
2022-08-19T15:05:53.879Z,40.79
2022-08-19T15:08:24.451Z,40.61
2022-08-19T15:10:51.891Z,40.79
2022-08-19T15:13:23.127Z,41.07
2022-08-19T15:15:49.810Z,41.06
2022-08-19T15:18:16.446Z,40.96
2022-08-19T15:20:44.477Z,41.43
2022-08-19T15:23:15.967Z,41.24
2022-08-19T15:25:43.199Z,41.32
2022-08-19T15:28:13.733Z,41.28
2022-08-19T15:30:41.366Z,41.65
2022-08-19T15:33:15.211Z,41.84
2022-08-19T15:35:43.318Z,41.86
2022-08-19T15:38:13.829Z,42.07
2022-08-19T15:40:42.542Z,42.29
2022-08-19T15:43:13.324Z,42.30
2022-08-19T15:45:40.214Z,42.43
2022-08-19T15:48:06.961Z,42.31
2022-08-19T15:50:33.985Z,42.69
2022-08-19T15:53:17.784Z,42.91
2022-08-19T15:55:45.667Z,42.83
2022-08-19T15:58:32.796Z,43.49
2022-08-19T16:01:26.992Z,43.82
2022-08-19T16:04:15.964Z,44.19
2022-08-19T16:06:49.187Z,44.76
2022-08-19T16:09:17.493Z,45.20
2022-08-19T16:11:46.434Z,45.72
2022-08-19T16:14:16.165Z,45.94
2022-08-19T16:16:44.499Z,46.16
2022-08-19T16:19:12.213Z,46.34
2022-08-19T16:21:41.890Z,46.73
2022-08-19T16:24:13.019Z,46.92
2022-08-19T16:26:40.748Z,46.84
2022-08-19T16:29:13.136Z,47.09
2022-08-19T16:31:44.306Z,47.19
2022-08-19T16:34:11.699Z,47.13
2022-08-19T16:36:41.701Z,47.48
2022-08-19T16:39:10.613Z,47.49
2022-08-19T16:41:37.762Z,48.01
2022-08-19T16:44:10.230Z,48.26
2022-08-19T16:46:37.304Z,48.44
2022-08-19T16:49:05.156Z,49.09
2022-08-19T16:51:33.643Z,49.24
2022-08-19T16:54:04.822Z,49.56
2022-08-19T16:56:31.482Z,49.75
2022-08-19T16:59:01.077Z,49.68
2022-08-19T17:01:29.057Z,49.67
2022-08-19T17:03:58.457Z,50.12
2022-08-19T17:06:28.327Z,50.40
2022-08-19T17:08:59.539Z,50.58
2022-08-19T17:11:27.825Z,50.95
2022-08-19T17:13:56.725Z,50.83
2022-08-19T17:16:26.039Z,50.63
2022-08-19T17:18:54.290Z,51.25
2022-08-19T17:21:23.752Z,51.68
2022-08-19T17:23:50.522Z,51.86
2022-08-19T17:26:18.593Z,52.16
2022-08-19T17:28:49.590Z,52.16
2022-08-19T17:31:17.517Z,52.12
2022-08-19T17:33:48.121Z,52.38
2022-08-19T17:36:26.324Z,52.56
2022-08-19T17:38:55.464Z,52.75
2022-08-19T17:41:24.199Z,53.09
2022-08-19T17:43:52.139Z,53.32
2022-08-19T17:46:20.300Z,53.46
2022-08-19T17:48:54.602Z,53.33
2022-08-19T17:51:33.419Z,53.78
2022-08-19T17:54:02.194Z,53.78
2022-08-19T17:56:28.789Z,53.83
2022-08-19T17:59:00.691Z,54.30
2022-08-19T18:01:39.017Z,54.02
2022-08-19T18:04:17.353Z,54.07
2022-08-19T18:06:46.629Z,54.28
2022-08-19T18:09:24.716Z,54.35
2022-08-19T18:11:53.328Z,54.29
2022-08-19T18:14:32.754Z,54.69
2022-08-19T18:17:05.379Z,54.73
2022-08-19T18:19:41.292Z,54.55
2022-08-19T18:22:22.329Z,54.54
2022-08-19T18:24:48.954Z,54.79
2022-08-19T18:27:15.470Z,54.69
2022-08-19T18:29:41.981Z,55.01
2022-08-19T18:32:14.722Z,54.88
2022-08-19T18:34:44.054Z,55.20
2022-08-19T18:37:10.918Z,55.54
2022-08-19T18:39:56.471Z,55.25
2022-08-19T18:42:41.531Z,55.47
2022-08-19T18:45:28.382Z,55.38
2022-08-19T18:48:27.322Z,55.53
2022-08-19T18:50:57.191Z,55.27
2022-08-19T18:53:29.828Z,55.63
2022-08-19T18:55:57.543Z,55.39
2022-08-19T18:58:32.188Z,55.80
2022-08-19T19:01:00.357Z,55.65
2022-08-19T19:03:29.730Z,55.65
2022-08-19T19:05:56.226Z,55.97
2022-08-19T19:08:27.178Z,55.52
2022-08-19T19:10:55.813Z,55.85
2022-08-19T19:13:28.894Z,55.96
2022-08-19T19:15:55.445Z,55.80
2022-08-19T19:18:21.987Z,55.78
2022-08-19T19:20:48.494Z,55.79
2022-08-19T19:23:15.454Z,55.98
2022-08-19T19:25:49.789Z,56.11
2022-08-19T19:28:25.179Z,56.19
2022-08-19T19:30:54.259Z,56.44
2022-08-19T19:33:22.417Z,56.64
2022-08-19T19:35:49.026Z,56.50
2022-08-19T19:38:15.810Z,56.46
2022-08-19T19:40:42.343Z,56.81
2022-08-19T19:43:13.277Z,56.43
2022-08-19T19:45:39.906Z,57.07
2022-08-19T19:48:06.743Z,57.04
2022-08-19T19:50:33.275Z,57.11
2022-08-19T19:53:04.162Z,57.25
2022-08-19T19:55:30.775Z,56.90
2022-08-19T19:58:00.174Z,57.19
2022-08-19T20:00:26.667Z,57.50
2022-08-19T20:02:56.001Z,57.42
2022-08-19T20:05:23.915Z,57.51
2022-08-19T20:08:11.077Z,57.58
2022-08-19T20:10:38.110Z,57.19
2022-08-19T20:13:07.469Z,57.63
2022-08-19T20:15:35.455Z,57.58
2022-08-19T20:18:04.758Z,57.54
2022-08-19T20:20:31.734Z,57.72
2022-08-19T20:22:58.459Z,57.86
2022-08-19T20:25:25.171Z,57.90
2022-08-19T20:27:51.775Z,58.00
2022-08-19T20:30:21.269Z,58.20
2022-08-19T20:32:50.725Z,57.79
2022-08-19T20:35:19.415Z,57.81
2022-08-19T20:37:46.828Z,57.68
2022-08-19T20:40:14.899Z,57.47
2022-08-19T20:42:43.494Z,57.43
2022-08-19T20:45:22.627Z,57.25
2022-08-19T20:47:59.142Z,57.40
2022-08-19T20:50:26.142Z,57.40
2022-08-19T20:52:56.550Z,57.08
2022-08-19T20:55:23.203Z,57.15
2022-08-19T20:57:49.697Z,57.06
2022-08-19T21:00:16.418Z,57.07
2022-08-19T21:02:42.890Z,57.09
2022-08-19T21:05:09.698Z,56.96
2022-08-19T21:07:39.562Z,56.93
2022-08-19T21:10:07.152Z,56.80
2022-08-19T21:12:33.791Z,56.62
2022-08-19T21:15:01.797Z,56.51
2022-08-19T21:17:28.356Z,56.37
2022-08-19T21:19:54.893Z,56.30
2022-08-19T21:22:21.602Z,56.36
2022-08-19T21:24:49.357Z,56.65
2022-08-19T21:27:16.053Z,56.47
2022-08-19T21:29:43.026Z,56.94
2022-08-19T21:32:14.233Z,56.91
2022-08-19T21:34:44.052Z,56.56
2022-08-19T21:37:19.938Z,56.64
2022-08-19T21:39:52.693Z,56.75
2022-08-19T21:42:19.429Z,56.65
2022-08-19T21:44:46.203Z,56.69
2022-08-19T21:47:12.875Z,56.67
2022-08-19T21:49:39.962Z,56.70
2022-08-19T21:52:06.981Z,56.98
2022-08-19T21:54:37.882Z,56.87
2022-08-19T21:57:07.029Z,56.88
2022-08-19T21:59:39.688Z,56.82
2022-08-19T22:02:19.896Z,57.02
2022-08-19T22:04:53.485Z,57.03
2022-08-19T22:07:21.989Z,57.08
2022-08-19T22:09:50.617Z,57.23
2022-08-19T22:12:24.846Z,57.04
2022-08-19T22:14:52.158Z,57.17
2022-08-19T22:17:19.618Z,57.34
2022-08-19T22:19:46.561Z,57.34
2022-08-19T22:22:13.481Z,57.26
2022-08-19T22:24:41.173Z,57.44
2022-08-19T22:27:08.679Z,57.62
2022-08-19T22:29:36.484Z,57.59
2022-08-19T22:32:26.614Z,57.73
2022-08-19T22:34:51.805Z,57.81
2022-08-19T22:37:18.519Z,58.18
2022-08-19T22:39:45.595Z,57.96
2022-08-19T22:42:12.425Z,58.04
2022-08-19T22:44:39.501Z,57.86
2022-08-19T22:47:06.147Z,57.91
2022-08-19T22:49:32.671Z,57.96
2022-08-19T22:52:17.851Z,58.12
2022-08-19T22:54:55.165Z,58.02
2022-08-19T22:57:22.659Z,58.10
2022-08-19T22:59:51.312Z,58.24
2022-08-19T23:02:28.194Z,58.41
2022-08-19T23:04:55.760Z,58.42
2022-08-19T23:07:23.496Z,58.49
2022-08-19T23:09:50.547Z,58.47
2022-08-19T23:12:30.541Z,58.83
2022-08-19T23:15:11.211Z,58.51
2022-08-19T23:17:38.098Z,58.37
2022-08-19T23:20:06.905Z,58.54
2022-08-19T23:22:35.078Z,58.60
2022-08-19T23:25:05.676Z,58.96
2022-08-19T23:27:51.745Z,58.95
2022-08-19T23:30:27.391Z,59.09
2022-08-19T23:33:12.677Z,58.80
2022-08-19T23:35:41.059Z,58.71
2022-08-19T23:38:09.017Z,59.13
2022-08-19T23:40:37.293Z,59.29
2022-08-19T23:43:08.179Z,59.51
2022-08-19T23:45:40.525Z,59.46
2022-08-19T23:48:10.191Z,59.50
2022-08-19T23:50:38.793Z,59.68
2022-08-19T23:53:13.337Z,59.73
2022-08-19T23:55:43.810Z,59.73
2022-08-19T23:58:11.401Z,59.69
